Time,TemperatureF,DewpointF,PressureIn,WindDirection,WindDirectionDegrees,WindSpeedMPH,WindSpeedGustMPH,Humidity,HourlyPrecipIn,Conditions,Clouds,dailyrainin,SoftwareType,DateUTC
2013-03-17 00:00:00,55.0,50.6,29.71,SW,225,0.0,0.0,85,0.00,CLR,CLR,0.00,WeatherDisplay:10.37,2013-03-17 04:00:00,
2013-03-17 00:30:00,54.7,50.3,29.70,SW,225,0.0,0.0,85,0.00,CLR,CLR,0.00,WeatherDisplay:10.37,2013-03-17 04:30:00,
2013-03-17 01:00:00,54.1,49.7,29.69,SW,225,0.0,0.0,85,0.00,CLR,CLR,0.00,WeatherDisplay:10.37,2013-03-17 05:00:00,
2013-03-17 01:30:00,54.0,49.6,29.69,SW,225,0.0,0.0,85,0.00,CLR,CLR,0.00,WeatherDisplay:10.37,2013-03-17 05:30:00,
2013-03-17 02:00:00,54.0,49.6,29.69,SW,225,0.0,0.0,85,0.00,CLR,CLR,0.00,WeatherDisplay:10.37,2013-03-17 06:00:00,
2013-03-17 02:30:00,53.8,49.7,29.69,SW,225,0.0,0.0,86,0.00,CLR,CLR,0.00,WeatherDisplay:10.37,2013-03-17 06:30:00,
2013-03-17 03:00:00,53.2,49.8,29.68,SW,225,0.0,0.0,88,0.00,CLR,CLR,0.00,WeatherDisplay:10.37,2013-03-17 07:00:00,
2013-03-17 03:30:00,53.4,50.0,29.67,SW,225,0.0,0.0,88,0.00,CLR,CLR,0.00,WeatherDisplay:10.37,2013-03-17 07:30:00,
2013-03-17 04:00:00,52.9,49.1,29.67,SW,225,0.0,0.0,87,0.00,CLR,CLR,0.00,WeatherDisplay:10.37,2013-03-17 08:00:00,
2013-03-17 04:30:00,52.7,49.2,29.65,SW,225,0.0,0.0,88,0.00,CLR,CLR,0.00,WeatherDisplay:10.37,2013-03-17 08:30:00,
2013-03-17 05:00:00,52.9,49.4,29.65,SW,225,0.0,0.0,88,0.00,CLR,CLR,0.00,WeatherDisplay:10.37,2013-03-17 09:00:00,
2013-03-17 05:30:00,52.9,49.4,29.66,SW,225,0.0,0.0,88,0.00,CLR,CLR,0.00,WeatherDisplay:10.37,2013-03-17 09:30:00,
2013-03-17 06:00:00,52.7,49.2,29.67,SW,225,0.0,0.0,88,0.00,CLR,CLR,0.00,WeatherDisplay:10.37,2013-03-17 10:00:00,
2013-03-17 06:30:00,52.7,49.2,29.67,SW,225,0.0,0.0,88,0.00,CLR,CLR,0.00,WeatherDisplay:10.37,2013-03-17 10:30:00,
2013-03-17 07:00:00,52.5,49.4,29.68,SW,225,0.0,0.0,89,0.00,CLR,CLR,0.00,WeatherDisplay:10.37,2013-03-17 11:00:00,
2013-03-17 07:30:00,52.9,49.7,29.69,SW,225,0.0,0.0,89,0.00,CLR,CLR,0.00,WeatherDisplay:10.37,2013-03-17 11:30:00,
2013-03-17 08:00:00,53.1,49.9,29.69,SW,225,0.0,0.0,89,0.00,CLR,CLR,0.00,WeatherDisplay:10.37,2013-03-17 12:00:00,
2013-03-17 08:30:00,54.7,51.5,29.70,SW,225,0.0,0.0,89,0.00,CLR,CLR,0.00,WeatherDisplay:10.37,2013-03-17 12:30:00,
2013-03-17 09:30:00,59.5,56.0,29.71,SW,225,0.0,0.0,88,0.00,CLR,CLR,0.00,WeatherDisplay:10.37,2013-03-17 13:30:00,
2013-03-17 10:00:00,64.6,57.9,29.71,SW,225,0.0,0.0,79,0.00,CLR,CLR,0.00,WeatherDisplay:10.37,2013-03-17 14:00:00,
2013-03-17 10:30:00,67.8,56.5,29.71,SSE,147,0.0,5.0,67,0.00,CLR,CLR,0.00,WeatherDisplay:10.37,2013-03-17 14:30:00,
2013-03-17 11:00:00,70.0,57.2,29.72,SSE,157,5.0,6.0,64,0.00,CLR,CLR,0.00,WeatherDisplay:10.37,2013-03-17 15:00:00,
2013-03-17 11:30:00,72.3,57.2,29.71,SE,144,1.0,7.0,59,0.00,CLR,CLR,0.00,WeatherDisplay:10.37,2013-03-17 15:30:00,
2013-03-17 12:00:00,73.2,58.0,29.71,SE,142,0.0,7.0,59,0.00,CLR,CLR,0.00,WeatherDisplay:10.37,2013-03-17 16:00:00,
2013-03-17 12:30:00,74.8,59.1,29.70,SSW,203,3.0,6.0,58,0.00,CLR,CLR,0.00,WeatherDisplay:10.37,2013-03-17 16:30:00,
2013-03-17 13:00:00,74.3,58.6,29.69,SSE,167,0.0,5.0,58,0.00,CLR,CLR,0.00,WeatherDisplay:10.37,2013-03-17 17:00:00,
2013-03-17 13:30:00,74.1,58.9,29.69,SSW,205,0.0,5.0,59,0.00,CLR,CLR,0.00,WeatherDisplay:10.37,2013-03-17 17:30:00,
2013-03-17 14:00:00,75.7,57.4,29.68,South,191,2.0,3.0,53,0.00,CLR,CLR,0.00,WeatherDisplay:10.37,2013-03-17 18:00:00,
2013-03-17 14:30:00,74.3,58.6,29.67,SSW,192,1.0,5.0,58,0.00,CLR,CLR,0.00,WeatherDisplay:10.37,2013-03-17 18:30:00,
2013-03-17 15:00:00,74.1,58.4,29.65,SSW,205,5.0,5.0,58,0.00,CLR,CLR,0.00,WeatherDisplay:10.37,2013-03-17 19:00:00,
2013-03-17 15:30:00,73.2,59.4,29.64,SSW,201,3.0,5.0,62,0.00,CLR,CLR,0.00,WeatherDisplay:10.37,2013-03-17 19:30:00,
2013-03-17 16:00:00,72.9,58.6,29.62,South,189,0.0,4.0,61,0.00,CLR,CLR,0.00,WeatherDisplay:10.37,2013-03-17 20:00:00,
2013-03-17 16:30:00,73.2,58.0,29.61,SSW,197,0.0,5.0,59,0.00,CLR,CLR,0.00,WeatherDisplay:10.37,2013-03-17 20:30:00,
2013-03-17 17:00:00,73.0,56.9,29.61,South,176,0.0,3.0,57,0.00,CLR,CLR,0.00,WeatherDisplay:10.37,2013-03-17 21:00:00,
2013-03-17 17:30:00,72.5,56.9,29.61,SSW,195,0.0,4.0,58,0.00,CLR,CLR,0.00,WeatherDisplay:10.37,2013-03-17 21:30:00,
2013-03-17 18:00:00,72.1,57.5,29.60,SSW,209,0.0,3.0,60,0.00,CLR,CLR,0.00,WeatherDisplay:10.37,2013-03-17 22:00:00,
2013-03-17 18:30:00,71.8,57.6,29.61,WSW,240,0.0,0.0,61,0.00,CLR,CLR,0.00,WeatherDisplay:10.37,2013-03-17 22:30:00,
2013-03-17 19:00:00,70.7,58.4,29.60,SSW,200,0.0,0.0,65,0.00,CLR,CLR,0.00,WeatherDisplay:10.37,2013-03-17 23:00:00,
2013-03-17 19:30:00,70.2,58.3,29.60,South,178,0.0,2.0,66,0.00,CLR,CLR,0.00,WeatherDisplay:10.37,2013-03-17 23:30:00,
2013-03-17 20:00:00,69.4,58.0,29.61,South,184,0.0,0.0,67,0.00,CLR,CLR,0.00,WeatherDisplay:10.37,2013-03-18 00:00:00,
2013-03-17 20:30:00,69.1,58.1,29.61,South,171,0.0,2.0,68,0.00,CLR,CLR,0.00,WeatherDisplay:10.37,2013-03-18 00:30:00,
2013-03-17 21:00:00,68.5,58.4,29.61,SSE,158,0.0,0.0,70,0.00,CLR,CLR,0.00,WeatherDisplay:10.37,2013-03-18 01:00:00,
2013-03-17 21:30:00,68.4,57.8,29.61,SSE,158,0.0,0.0,69,0.00,CLR,CLR,0.00,WeatherDisplay:10.37,2013-03-18 01:30:00,
2013-03-17 22:00:00,67.3,57.9,29.61,SSE,158,0.0,0.0,72,0.00,CLR,CLR,0.00,WeatherDisplay:10.37,2013-03-18 02:00:00,
2013-03-17 22:30:00,66.6,57.6,29.63,SSE,158,0.0,0.0,73,0.00,CLR,CLR,0.00,WeatherDisplay:10.37,2013-03-18 02:30:00,
2013-03-17 23:00:00,65.8,57.3,29.63,SSE,158,0.0,0.0,74,0.00,CLR,CLR,0.00,WeatherDisplay:10.37,2013-03-18 03:00:00,
2013-03-17 23:30:00,64.8,57.4,29.63,SSE,158,0.0,0.0,77,0.00,CLR,CLR,0.00,WeatherDisplay:10.37,2013-03-18 03:30:00,